sensor_id;sensor_type;location;lat;lon;timestamp;temperature;humidity
54680;DHT22;40578;53.178;5.846;2022-07-22T00:01:34;15.30;99.90
54680;DHT22;40578;53.178;5.846;2022-07-22T00:04:04;15.30;99.90
54680;DHT22;40578;53.178;5.846;2022-07-22T00:06:30;15.30;99.90
54680;DHT22;40578;53.178;5.846;2022-07-22T00:08:56;15.30;99.90
54680;DHT22;40578;53.178;5.846;2022-07-22T00:11:23;15.30;99.90
54680;DHT22;40578;53.178;5.846;2022-07-22T00:13:48;15.30;99.90
54680;DHT22;40578;53.178;5.846;2022-07-22T00:16:15;15.40;99.90
54680;DHT22;40578;53.178;5.846;2022-07-22T00:18:40;15.60;99.90
54680;DHT22;40578;53.178;5.846;2022-07-22T00:21:06;15.30;99.90
54680;DHT22;40578;53.178;5.846;2022-07-22T00:23:32;15.30;98.00
54680;DHT22;40578;53.178;5.846;2022-07-22T00:25:57;15.30;66.30
54680;DHT22;40578;53.178;5.846;2022-07-22T00:28:23;15.30;35.80
54680;DHT22;40578;53.178;5.846;2022-07-22T00:30:49;15.30;68.10
54680;DHT22;40578;53.178;5.846;2022-07-22T00:33:15;15.30;97.50
54680;DHT22;40578;53.178;5.846;2022-07-22T00:35:40;15.30;99.90
54680;DHT22;40578;53.178;5.846;2022-07-22T00:38:06;15.30;99.90
54680;DHT22;40578;53.178;5.846;2022-07-22T00:40:32;15.30;99.90
54680;DHT22;40578;53.178;5.846;2022-07-22T00:42:57;15.30;99.90
54680;DHT22;40578;53.178;5.846;2022-07-22T00:45:23;15.30;99.90
54680;DHT22;40578;53.178;5.846;2022-07-22T00:47:49;15.30;99.90
54680;DHT22;40578;53.178;5.846;2022-07-22T00:50:15;15.30;99.90
54680;DHT22;40578;53.178;5.846;2022-07-22T00:52:42;15.30;99.90
54680;DHT22;40578;53.178;5.846;2022-07-22T00:55:09;15.30;99.90
54680;DHT22;40578;53.178;5.846;2022-07-22T00:57:34;15.30;99.90
54680;DHT22;40578;53.178;5.846;2022-07-22T01:00:01;15.30;99.90
54680;DHT22;40578;53.178;5.846;2022-07-22T01:02:27;15.30;99.90
54680;DHT22;40578;53.178;5.846;2022-07-22T01:04:53;15.30;99.90
54680;DHT22;40578;53.178;5.846;2022-07-22T01:07:19;15.30;99.90
54680;DHT22;40578;53.178;5.846;2022-07-22T01:09:45;15.30;99.90
54680;DHT22;40578;53.178;5.846;2022-07-22T01:12:11;15.30;92.30
54680;DHT22;40578;53.178;5.846;2022-07-22T01:14:37;15.30;49.30
54680;DHT22;40578;53.178;5.846;2022-07-22T01:17:03;15.40;99.90
54680;DHT22;40578;53.178;5.846;2022-07-22T01:19:29;15.60;92.90
54680;DHT22;40578;53.178;5.846;2022-07-22T01:21:55;15.30;99.90
54680;DHT22;40578;53.178;5.846;2022-07-22T01:24:20;15.40;94.50
54680;DHT22;40578;53.178;5.846;2022-07-22T01:26:46;15.30;40.70
54680;DHT22;40578;53.178;5.846;2022-07-22T01:29:12;15.30;27.00
54680;DHT22;40578;53.178;5.846;2022-07-22T01:31:38;15.30;1.80
54680;DHT22;40578;53.178;5.846;2022-07-22T01:34:04;15.30;1.00
54680;DHT22;40578;53.178;5.846;2022-07-22T01:36:30;15.30;1.00
54680;DHT22;40578;53.178;5.846;2022-07-22T01:38:56;15.30;1.00
54680;DHT22;40578;53.178;5.846;2022-07-22T01:41:21;15.30;1.00
54680;DHT22;40578;53.178;5.846;2022-07-22T01:43:47;15.20;1.00
54680;DHT22;40578;53.178;5.846;2022-07-22T01:46:13;15.20;1.00
54680;DHT22;40578;53.178;5.846;2022-07-22T01:48:39;15.30;1.00
54680;DHT22;40578;53.178;5.846;2022-07-22T01:51:05;15.20;1.00
54680;DHT22;40578;53.178;5.846;2022-07-22T01:53:31;15.30;99.90
54680;DHT22;40578;53.178;5.846;2022-07-22T01:56:00;15.20;99.90
54680;DHT22;40578;53.178;5.846;2022-07-22T01:58:26;15.20;99.90
54680;DHT22;40578;53.178;5.846;2022-07-22T02:00:52;15.20;99.90
54680;DHT22;40578;53.178;5.846;2022-07-22T02:03:17;15.20;99.90
54680;DHT22;40578;53.178;5.846;2022-07-22T02:05:43;15.20;99.90
54680;DHT22;40578;53.178;5.846;2022-07-22T02:08:10;15.20;99.90
54680;DHT22;40578;53.178;5.846;2022-07-22T02:10:36;15.20;99.90
54680;DHT22;40578;53.178;5.846;2022-07-22T02:13:03;15.20;99.90
54680;DHT22;40578;53.178;5.846;2022-07-22T02:15:29;15.20;1.00
54680;DHT22;40578;53.178;5.846;2022-07-22T02:17:56;15.20;1.00
54680;DHT22;40578;53.178;5.846;2022-07-22T02:20:22;15.70;1.00
54680;DHT22;40578;53.178;5.846;2022-07-22T02:22:48;15.20;58.00
54680;DHT22;40578;53.178;5.846;2022-07-22T02:25:14;15.20;98.20
54680;DHT22;40578;53.178;5.846;2022-07-22T02:27:41;15.20;49.80
54680;DHT22;40578;53.178;5.846;2022-07-22T02:30:07;15.20;1.00
54680;DHT22;40578;53.178;5.846;2022-07-22T02:32:34;15.20;68.60
54680;DHT22;40578;53.178;5.846;2022-07-22T02:35:00;15.20;99.90
54680;DHT22;40578;53.178;5.846;2022-07-22T02:37:25;15.30;58.70
54680;DHT22;40578;53.178;5.846;2022-07-22T02:39:51;15.10;69.40
54680;DHT22;40578;53.178;5.846;2022-07-22T02:42:17;15.20;83.80
54680;DHT22;40578;53.178;5.846;2022-07-22T02:44:42;15.20;99.90
54680;DHT22;40578;53.178;5.846;2022-07-22T02:47:08;15.20;99.90
54680;DHT22;40578;53.178;5.846;2022-07-22T02:49:34;15.10;99.90
54680;DHT22;40578;53.178;5.846;2022-07-22T02:51:59;15.20;99.90
54680;DHT22;40578;53.178;5.846;2022-07-22T02:54:25;15.10;99.90
54680;DHT22;40578;53.178;5.846;2022-07-22T02:56:51;15.20;99.90
54680;DHT22;40578;53.178;5.846;2022-07-22T02:59:16;15.10;99.90
54680;DHT22;40578;53.178;5.846;2022-07-22T03:01:42;15.10;99.90
54680;DHT22;40578;53.178;5.846;2022-07-22T03:04:08;15.10;99.90
54680;DHT22;40578;53.178;5.846;2022-07-22T03:06:33;15.10;99.90
54680;DHT22;40578;53.178;5.846;2022-07-22T03:08:59;15.10;99.90
54680;DHT22;40578;53.178;5.846;2022-07-22T03:11:24;15.10;1.00
54680;DHT22;40578;53.178;5.846;2022-07-22T03:13:50;15.10;1.00
54680;DHT22;40578;53.178;5.846;2022-07-22T03:16:16;15.20;1.00
54680;DHT22;40578;53.178;5.846;2022-07-22T03:18:44;15.10;99.90
54680;DHT22;40578;53.178;5.846;2022-07-22T03:21:10;15.10;99.90
54680;DHT22;40578;53.178;5.846;2022-07-22T03:23:35;15.10;1.00
54680;DHT22;40578;53.178;5.846;2022-07-22T03:26:01;15.10;1.00
54680;DHT22;40578;53.178;5.846;2022-07-22T03:28:27;15.10;1.00
54680;DHT22;40578;53.178;5.846;2022-07-22T03:30:54;15.10;1.00
54680;DHT22;40578;53.178;5.846;2022-07-22T03:33:19;15.10;1.00
54680;DHT22;40578;53.178;5.846;2022-07-22T03:35:45;15.10;1.00
54680;DHT22;40578;53.178;5.846;2022-07-22T03:38:11;15.00;1.00
54680;DHT22;40578;53.178;5.846;2022-07-22T03:40:36;15.10;1.00
54680;DHT22;40578;53.178;5.846;2022-07-22T03:43:02;15.10;1.00
54680;DHT22;40578;53.178;5.846;2022-07-22T03:45:28;15.10;1.00
54680;DHT22;40578;53.178;5.846;2022-07-22T03:47:57;15.00;1.00
54680;DHT22;40578;53.178;5.846;2022-07-22T03:50:25;15.00;1.00
54680;DHT22;40578;53.178;5.846;2022-07-22T03:52:51;15.10;1.00
54680;DHT22;40578;53.178;5.846;2022-07-22T03:55:17;15.00;1.00
54680;DHT22;40578;53.178;5.846;2022-07-22T03:57:43;15.10;99.90
54680;DHT22;40578;53.178;5.846;2022-07-22T04:00:09;15.10;1.00
54680;DHT22;40578;53.178;5.846;2022-07-22T04:02:34;15.10;1.00
54680;DHT22;40578;53.178;5.846;2022-07-22T04:05:00;15.10;99.90
54680;DHT22;40578;53.178;5.846;2022-07-22T04:07:26;15.10;99.90
54680;DHT22;40578;53.178;5.846;2022-07-22T04:09:51;15.40;99.90
54680;DHT22;40578;53.178;5.846;2022-07-22T04:12:17;15.10;99.90
54680;DHT22;40578;53.178;5.846;2022-07-22T04:14:42;15.10;99.90
54680;DHT22;40578;53.178;5.846;2022-07-22T04:17:09;15.20;99.90
54680;DHT22;40578;53.178;5.846;2022-07-22T04:19:35;15.10;99.90
54680;DHT22;40578;53.178;5.846;2022-07-22T04:22:00;15.10;99.90
54680;DHT22;40578;53.178;5.846;2022-07-22T04:24:27;15.20;99.90
54680;DHT22;40578;53.178;5.846;2022-07-22T04:26:52;15.10;99.90
54680;DHT22;40578;53.178;5.846;2022-07-22T04:29:18;15.20;99.90
54680;DHT22;40578;53.178;5.846;2022-07-22T04:31:43;15.10;99.90
54680;DHT22;40578;53.178;5.846;2022-07-22T04:34:09;15.10;99.90
54680;DHT22;40578;53.178;5.846;2022-07-22T04:36:34;15.10;99.90
54680;DHT22;40578;53.178;5.846;2022-07-22T04:39:00;15.10;99.90
54680;DHT22;40578;53.178;5.846;2022-07-22T04:41:26;15.10;99.90
54680;DHT22;40578;53.178;5.846;2022-07-22T04:43:51;15.10;99.90
54680;DHT22;40578;53.178;5.846;2022-07-22T04:46:17;15.10;99.90
54680;DHT22;40578;53.178;5.846;2022-07-22T04:48:42;15.30;1.00
54680;DHT22;40578;53.178;5.846;2022-07-22T04:51:11;15.10;1.00
54680;DHT22;40578;53.178;5.846;2022-07-22T04:53:39;15.20;1.00
54680;DHT22;40578;53.178;5.846;2022-07-22T04:56:05;15.20;1.00
54680;DHT22;40578;53.178;5.846;2022-07-22T04:58:31;15.20;1.00
54680;DHT22;40578;53.178;5.846;2022-07-22T05:00:57;15.20;1.00
54680;DHT22;40578;53.178;5.846;2022-07-22T05:03:22;15.20;1.00
54680;DHT22;40578;53.178;5.846;2022-07-22T05:05:49;15.20;1.00
54680;DHT22;40578;53.178;5.846;2022-07-22T05:08:15;15.30;94.00
54680;DHT22;40578;53.178;5.846;2022-07-22T05:10:41;15.30;99.90
54680;DHT22;40578;53.178;5.846;2022-07-22T05:13:06;15.30;1.00
54680;DHT22;40578;53.178;5.846;2022-07-22T05:15:32;15.20;1.00
54680;DHT22;40578;53.178;5.846;2022-07-22T05:17:57;15.20;99.90
54680;DHT22;40578;53.178;5.846;2022-07-22T05:20:23;15.20;1.00
54680;DHT22;40578;53.178;5.846;2022-07-22T05:22:48;15.20;99.90
54680;DHT22;40578;53.178;5.846;2022-07-22T05:25:14;15.40;99.90
54680;DHT22;40578;53.178;5.846;2022-07-22T05:27:50;15.20;99.90
54680;DHT22;40578;53.178;5.846;2022-07-22T05:30:16;15.40;99.90
54680;DHT22;40578;53.178;5.846;2022-07-22T05:32:44;15.30;99.90
54680;DHT22;40578;53.178;5.846;2022-07-22T05:35:10;15.30;99.90
54680;DHT22;40578;53.178;5.846;2022-07-22T05:37:35;15.30;99.90
54680;DHT22;40578;53.178;5.846;2022-07-22T05:40:01;15.30;99.90
54680;DHT22;40578;53.178;5.846;2022-07-22T05:42:27;15.30;99.90
54680;DHT22;40578;53.178;5.846;2022-07-22T05:44:52;15.30;99.90
54680;DHT22;40578;53.178;5.846;2022-07-22T05:47:18;15.50;99.90
54680;DHT22;40578;53.178;5.846;2022-07-22T05:49:44;15.30;1.00
54680;DHT22;40578;53.178;5.846;2022-07-22T05:52:09;15.30;1.00
54680;DHT22;40578;53.178;5.846;2022-07-22T05:54:35;15.40;1.00
54680;DHT22;40578;53.178;5.846;2022-07-22T05:57:00;15.40;99.90
54680;DHT22;40578;53.178;5.846;2022-07-22T05:59:26;15.40;1.00
54680;DHT22;40578;53.178;5.846;2022-07-22T06:01:52;15.50;1.00
54680;DHT22;40578;53.178;5.846;2022-07-22T06:04:17;15.50;1.00
54680;DHT22;40578;53.178;5.846;2022-07-22T06:06:43;15.70;1.00
54680;DHT22;40578;53.178;5.846;2022-07-22T06:09:09;15.60;1.00
54680;DHT22;40578;53.178;5.846;2022-07-22T06:11:34;15.60;1.00
54680;DHT22;40578;53.178;5.846;2022-07-22T06:14:00;15.70;1.00
54680;DHT22;40578;53.178;5.846;2022-07-22T06:16:25;15.70;1.00
54680;DHT22;40578;53.178;5.846;2022-07-22T06:18:51;15.70;99.90
54680;DHT22;40578;53.178;5.846;2022-07-22T06:21:17;15.70;99.90
54680;DHT22;40578;53.178;5.846;2022-07-22T06:23:42;15.70;99.90
54680;DHT22;40578;53.178;5.846;2022-07-22T06:26:08;15.80;99.90
54680;DHT22;40578;53.178;5.846;2022-07-22T06:28:33;15.80;99.90
54680;DHT22;40578;53.178;5.846;2022-07-22T06:30:59;15.80;99.90
54680;DHT22;40578;53.178;5.846;2022-07-22T06:33:25;15.80;1.00
54680;DHT22;40578;53.178;5.846;2022-07-22T06:35:50;15.90;1.00
54680;DHT22;40578;53.178;5.846;2022-07-22T06:38:16;16.00;99.90
54680;DHT22;40578;53.178;5.846;2022-07-22T06:40:41;16.00;99.90
54680;DHT22;40578;53.178;5.846;2022-07-22T06:43:07;16.10;99.90
54680;DHT22;40578;53.178;5.846;2022-07-22T06:45:33;16.20;99.90
54680;DHT22;40578;53.178;5.846;2022-07-22T06:47:58;16.30;99.90
54680;DHT22;40578;53.178;5.846;2022-07-22T06:50:24;16.30;1.00
54680;DHT22;40578;53.178;5.846;2022-07-22T06:52:50;16.30;15.70
54680;DHT22;40578;53.178;5.846;2022-07-22T06:55:15;16.40;1.00
54680;DHT22;40578;53.178;5.846;2022-07-22T06:57:41;16.50;1.00
54680;DHT22;40578;53.178;5.846;2022-07-22T07:00:07;16.40;1.00
54680;DHT22;40578;53.178;5.846;2022-07-22T07:02:34;16.40;1.00
54680;DHT22;40578;53.178;5.846;2022-07-22T07:05:00;16.40;99.90
54680;DHT22;40578;53.178;5.846;2022-07-22T07:07:26;16.40;1.00
54680;DHT22;40578;53.178;5.846;2022-07-22T07:09:51;16.40;1.00
54680;DHT22;40578;53.178;5.846;2022-07-22T07:12:17;16.50;1.00
54680;DHT22;40578;53.178;5.846;2022-07-22T07:14:42;16.30;1.00
54680;DHT22;40578;53.178;5.846;2022-07-22T07:17:08;16.20;1.00
54680;DHT22;40578;53.178;5.846;2022-07-22T07:19:34;16.10;99.90
54680;DHT22;40578;53.178;5.846;2022-07-22T07:21:59;16.00;99.90
54680;DHT22;40578;53.178;5.846;2022-07-22T07:24:25;16.00;99.90
54680;DHT22;40578;53.178;5.846;2022-07-22T07:26:50;16.00;99.90
54680;DHT22;40578;53.178;5.846;2022-07-22T07:29:16;16.00;99.90
54680;DHT22;40578;53.178;5.846;2022-07-22T07:31:42;16.00;99.90
54680;DHT22;40578;53.178;5.846;2022-07-22T07:34:07;16.10;99.90
54680;DHT22;40578;53.178;5.846;2022-07-22T07:36:33;16.20;1.00
54680;DHT22;40578;53.178;5.846;2022-07-22T07:38:58;16.30;1.00
54680;DHT22;40578;53.178;5.846;2022-07-22T07:41:24;16.40;36.90
54680;DHT22;40578;53.178;5.846;2022-07-22T07:43:50;16.40;1.00
54680;DHT22;40578;53.178;5.846;2022-07-22T07:46:15;16.50;1.00
54680;DHT22;40578;53.178;5.846;2022-07-22T07:48:41;16.60;39.00
54680;DHT22;40578;53.178;5.846;2022-07-22T07:51:07;16.60;1.00
54680;DHT22;40578;53.178;5.846;2022-07-22T07:53:32;16.70;1.00
54680;DHT22;40578;53.178;5.846;2022-07-22T07:55:58;16.70;99.90
54680;DHT22;40578;53.178;5.846;2022-07-22T07:58:24;16.80;99.90
54680;DHT22;40578;53.178;5.846;2022-07-22T08:00:50;16.80;99.90
54680;DHT22;40578;53.178;5.846;2022-07-22T08:03:15;16.80;99.90
54680;DHT22;40578;53.178;5.846;2022-07-22T08:05:41;16.70;99.90
54680;DHT22;40578;53.178;5.846;2022-07-22T08:08:07;16.90;99.90
54680;DHT22;40578;53.178;5.846;2022-07-22T08:10:33;16.90;99.90
54680;DHT22;40578;53.178;5.846;2022-07-22T08:13:02;16.90;99.90
54680;DHT22;40578;53.178;5.846;2022-07-22T08:15:28;17.10;99.90
54680;DHT22;40578;53.178;5.846;2022-07-22T08:17:55;17.00;99.90
54680;DHT22;40578;53.178;5.846;2022-07-22T08:20:21;17.10;99.90
54680;DHT22;40578;53.178;5.846;2022-07-22T08:22:47;17.10;1.00
54680;DHT22;40578;53.178;5.846;2022-07-22T08:25:13;17.10;1.00
54680;DHT22;40578;53.178;5.846;2022-07-22T08:27:39;17.00;1.00
54680;DHT22;40578;53.178;5.846;2022-07-22T08:30:06;17.10;99.90
54680;DHT22;40578;53.178;5.846;2022-07-22T08:32:32;17.20;1.00
54680;DHT22;40578;53.178;5.846;2022-07-22T08:34:58;17.40;1.00
54680;DHT22;40578;53.178;5.846;2022-07-22T08:37:24;17.40;99.90
54680;DHT22;40578;53.178;5.846;2022-07-22T08:39:50;17.40;99.90
54680;DHT22;40578;53.178;5.846;2022-07-22T08:42:16;17.40;99.90
54680;DHT22;40578;53.178;5.846;2022-07-22T08:44:42;17.50;99.90
54680;DHT22;40578;53.178;5.846;2022-07-22T08:47:07;17.40;99.90
54680;DHT22;40578;53.178;5.846;2022-07-22T08:49:33;17.40;99.90
54680;DHT22;40578;53.178;5.846;2022-07-22T08:51:59;17.40;99.90
54680;DHT22;40578;53.178;5.846;2022-07-22T08:54:24;17.50;99.90
54680;DHT22;40578;53.178;5.846;2022-07-22T08:56:51;17.40;99.90
54680;DHT22;40578;53.178;5.846;2022-07-22T08:59:17;17.30;99.90
54680;DHT22;40578;53.178;5.846;2022-07-22T09:02:21;17.40;99.90
54680;DHT22;40578;53.178;5.846;2022-07-22T09:04:58;17.30;99.90
54680;DHT22;40578;53.178;5.846;2022-07-22T09:07:34;17.40;99.90
54680;DHT22;40578;53.178;5.846;2022-07-22T09:10:12;17.30;1.00
54680;DHT22;40578;53.178;5.846;2022-07-22T09:12:58;17.50;1.00
54680;DHT22;40578;53.178;5.846;2022-07-22T09:15:31;17.30;1.00
54680;DHT22;40578;53.178;5.846;2022-07-22T09:17:58;17.30;1.00
54680;DHT22;40578;53.178;5.846;2022-07-22T09:20:25;17.40;1.00
54680;DHT22;40578;53.178;5.846;2022-07-22T09:22:51;17.40;1.00
54680;DHT22;40578;53.178;5.846;2022-07-22T09:27:46;17.50;1.00
54680;DHT22;40578;53.178;5.846;2022-07-22T09:30:17;17.60;1.00
54680;DHT22;40578;53.178;5.846;2022-07-22T09:32:44;17.70;1.00
54680;DHT22;40578;53.178;5.846;2022-07-22T09:35:10;17.80;99.90
54680;DHT22;40578;53.178;5.846;2022-07-22T09:37:50;17.90;99.90
54680;DHT22;40578;53.178;5.846;2022-07-22T09:40:24;18.00;99.90
54680;DHT22;40578;53.178;5.846;2022-07-22T09:42:54;18.00;99.90
54680;DHT22;40578;53.178;5.846;2022-07-22T09:45:21;18.00;99.90
54680;DHT22;40578;53.178;5.846;2022-07-22T09:47:48;17.80;99.90
54680;DHT22;40578;53.178;5.846;2022-07-22T09:50:14;17.60;99.90
54680;DHT22;40578;53.178;5.846;2022-07-22T09:52:40;17.50;99.90
54680;DHT22;40578;53.178;5.846;2022-07-22T09:55:08;17.50;1.00
54680;DHT22;40578;53.178;5.846;2022-07-22T09:57:33;17.40;1.00
54680;DHT22;40578;53.178;5.846;2022-07-22T09:59:59;17.30;1.00
54680;DHT22;40578;53.178;5.846;2022-07-22T10:02:25;17.40;1.00
54680;DHT22;40578;53.178;5.846;2022-07-22T10:04:52;17.40;1.00
54680;DHT22;40578;53.178;5.846;2022-07-22T10:07:19;17.50;99.90
54680;DHT22;40578;53.178;5.846;2022-07-22T10:09:46;17.50;99.90
54680;DHT22;40578;53.178;5.846;2022-07-22T10:12:12;17.60;99.90
54680;DHT22;40578;53.178;5.846;2022-07-22T10:14:38;17.60;99.90
54680;DHT22;40578;53.178;5.846;2022-07-22T10:17:16;17.70;99.90
54680;DHT22;40578;53.178;5.846;2022-07-22T10:19:41;17.80;99.90
54680;DHT22;40578;53.178;5.846;2022-07-22T10:25:06;18.10;99.90
54680;DHT22;40578;53.178;5.846;2022-07-22T10:28:00;18.30;99.90
54680;DHT22;40578;53.178;5.846;2022-07-22T10:30:34;18.50;99.90
54680;DHT22;40578;53.178;5.846;2022-07-22T10:33:11;18.60;99.90
54680;DHT22;40578;53.178;5.846;2022-07-22T10:38:11;18.70;16.80
54680;DHT22;40578;53.178;5.846;2022-07-22T10:43:26;18.70;19.30
54680;DHT22;40578;53.178;5.846;2022-07-22T10:45:53;18.60;40.70
54680;DHT22;40578;53.178;5.846;2022-07-22T10:51:21;19.00;44.70
54680;DHT22;40578;53.178;5.846;2022-07-22T10:53:58;19.00;1.00
54680;DHT22;40578;53.178;5.846;2022-07-22T10:56:36;19.00;1.00
54680;DHT22;40578;53.178;5.846;2022-07-22T10:59:12;19.10;1.00
54680;DHT22;40578;53.178;5.846;2022-07-22T11:01:40;19.10;1.00
54680;DHT22;40578;53.178;5.846;2022-07-22T11:04:19;19.30;1.00
54680;DHT22;40578;53.178;5.846;2022-07-22T11:06:48;19.40;17.40
54680;DHT22;40578;53.178;5.846;2022-07-22T11:09:16;19.40;1.00
54680;DHT22;40578;53.178;5.846;2022-07-22T11:16:41;19.20;1.00
54680;DHT22;40578;53.178;5.846;2022-07-22T11:19:07;19.10;1.00
54680;DHT22;40578;53.178;5.846;2022-07-22T11:21:33;19.10;13.80
54680;DHT22;40578;53.178;5.846;2022-07-22T11:24:01;18.90;1.00
54680;DHT22;40578;53.178;5.846;2022-07-22T11:29:04;19.10;1.00
54680;DHT22;40578;53.178;5.846;2022-07-22T11:31:30;19.10;1.00
54680;DHT22;40578;53.178;5.846;2022-07-22T11:34:11;19.00;1.00
54680;DHT22;40578;53.178;5.846;2022-07-22T11:36:39;19.00;1.00
54680;DHT22;40578;53.178;5.846;2022-07-22T11:39:06;19.00;1.00
54680;DHT22;40578;53.178;5.846;2022-07-22T11:41:32;19.10;1.00
54680;DHT22;40578;53.178;5.846;2022-07-22T11:43:58;19.10;39.90
54680;DHT22;40578;53.178;5.846;2022-07-22T11:46:24;19.20;52.10
54680;DHT22;40578;53.178;5.846;2022-07-22T11:48:54;19.20;73.20
54680;DHT22;40578;53.178;5.846;2022-07-22T11:51:27;19.10;99.90
54680;DHT22;40578;53.178;5.846;2022-07-22T11:53:53;19.00;99.90
54680;DHT22;40578;53.178;5.846;2022-07-22T11:56:19;19.10;99.90
54680;DHT22;40578;53.178;5.846;2022-07-22T11:58:49;19.10;99.90
54680;DHT22;40578;53.178;5.846;2022-07-22T12:01:16;19.10;99.90
54680;DHT22;40578;53.178;5.846;2022-07-22T12:03:49;19.20;99.90
54680;DHT22;40578;53.178;5.846;2022-07-22T12:06:17;19.10;99.90
54680;DHT22;40578;53.178;5.846;2022-07-22T12:08:49;19.10;93.90
54680;DHT22;40578;53.178;5.846;2022-07-22T12:11:16;19.00;99.90
54680;DHT22;40578;53.178;5.846;2022-07-22T12:13:47;19.00;99.90
54680;DHT22;40578;53.178;5.846;2022-07-22T12:16:21;19.10;99.90
54680;DHT22;40578;53.178;5.846;2022-07-22T12:18:53;19.20;99.90
54680;DHT22;40578;53.178;5.846;2022-07-22T12:21:22;19.30;99.90
54680;DHT22;40578;53.178;5.846;2022-07-22T12:26:47;19.30;99.90
54680;DHT22;40578;53.178;5.846;2022-07-22T12:31:43;19.10;99.90
54680;DHT22;40578;53.178;5.846;2022-07-22T12:34:09;19.10;99.90
54680;DHT22;40578;53.178;5.846;2022-07-22T12:36:35;19.10;99.90
54680;DHT22;40578;53.178;5.846;2022-07-22T12:39:16;19.00;99.90
54680;DHT22;40578;53.178;5.846;2022-07-22T12:41:53;18.90;99.90
54680;DHT22;40578;53.178;5.846;2022-07-22T12:44:21;18.80;99.90
54680;DHT22;40578;53.178;5.846;2022-07-22T12:46:49;18.60;99.90
54680;DHT22;40578;53.178;5.846;2022-07-22T12:49:18;18.50;99.90
54680;DHT22;40578;53.178;5.846;2022-07-22T12:54:32;18.30;99.90
54680;DHT22;40578;53.178;5.846;2022-07-22T12:56:58;18.20;99.90
54680;DHT22;40578;53.178;5.846;2022-07-22T12:59:24;18.10;99.90
54680;DHT22;40578;53.178;5.846;2022-07-22T13:01:49;18.20;99.90
54680;DHT22;40578;53.178;5.846;2022-07-22T13:04:15;18.10;99.90
54680;DHT22;40578;53.178;5.846;2022-07-22T13:06:41;18.00;99.90
54680;DHT22;40578;53.178;5.846;2022-07-22T13:09:06;18.20;99.90
54680;DHT22;40578;53.178;5.846;2022-07-22T13:11:32;18.30;99.90
54680;DHT22;40578;53.178;5.846;2022-07-22T13:13:58;18.40;99.90
54680;DHT22;40578;53.178;5.846;2022-07-22T13:16:26;18.40;99.90
54680;DHT22;40578;53.178;5.846;2022-07-22T13:18:52;18.50;99.90
54680;DHT22;40578;53.178;5.846;2022-07-22T13:21:18;18.50;99.90
54680;DHT22;40578;53.178;5.846;2022-07-22T13:23:43;18.60;99.90
54680;DHT22;40578;53.178;5.846;2022-07-22T13:26:09;18.70;99.90
54680;DHT22;40578;53.178;5.846;2022-07-22T13:28:35;18.70;99.90
54680;DHT22;40578;53.178;5.846;2022-07-22T13:31:00;18.80;99.90
54680;DHT22;40578;53.178;5.846;2022-07-22T13:33:26;18.90;99.90
54680;DHT22;40578;53.178;5.846;2022-07-22T13:35:51;18.90;99.90
54680;DHT22;40578;53.178;5.846;2022-07-22T13:38:17;19.10;99.90
54680;DHT22;40578;53.178;5.846;2022-07-22T13:40:43;19.00;91.90
54680;DHT22;40578;53.178;5.846;2022-07-22T13:43:17;19.10;99.90
54680;DHT22;40578;53.178;5.846;2022-07-22T13:45:42;19.20;99.90
54680;DHT22;40578;53.178;5.846;2022-07-22T13:48:08;19.10;99.90
54680;DHT22;40578;53.178;5.846;2022-07-22T13:50:33;18.90;99.90
54680;DHT22;40578;53.178;5.846;2022-07-22T13:52:59;18.80;99.90
54680;DHT22;40578;53.178;5.846;2022-07-22T13:55:25;19.00;99.90
54680;DHT22;40578;53.178;5.846;2022-07-22T13:57:51;19.00;99.90
54680;DHT22;40578;53.178;5.846;2022-07-22T14:00:16;19.10;99.90
54680;DHT22;40578;53.178;5.846;2022-07-22T14:02:45;18.90;99.90
54680;DHT22;40578;53.178;5.846;2022-07-22T14:05:11;18.80;99.90
54680;DHT22;40578;53.178;5.846;2022-07-22T14:07:37;18.90;99.90
54680;DHT22;40578;53.178;5.846;2022-07-22T14:10:03;18.90;99.90
54680;DHT22;40578;53.178;5.846;2022-07-22T14:12:29;18.90;99.90
54680;DHT22;40578;53.178;5.846;2022-07-22T14:14:54;19.10;99.90
54680;DHT22;40578;53.178;5.846;2022-07-22T14:17:20;19.20;99.90
54680;DHT22;40578;53.178;5.846;2022-07-22T14:19:46;19.20;99.90
54680;DHT22;40578;53.178;5.846;2022-07-22T14:22:11;19.30;99.90
54680;DHT22;40578;53.178;5.846;2022-07-22T14:24:37;19.30;99.90
54680;DHT22;40578;53.178;5.846;2022-07-22T14:27:03;19.30;99.90
54680;DHT22;40578;53.178;5.846;2022-07-22T14:29:28;19.30;99.90
54680;DHT22;40578;53.178;5.846;2022-07-22T14:31:54;19.10;99.90
54680;DHT22;40578;53.178;5.846;2022-07-22T14:34:20;19.00;99.90
54680;DHT22;40578;53.178;5.846;2022-07-22T14:36:45;19.10;99.90
54680;DHT22;40578;53.178;5.846;2022-07-22T14:39:11;19.10;99.90
54680;DHT22;40578;53.178;5.846;2022-07-22T14:41:37;19.20;99.90
54680;DHT22;40578;53.178;5.846;2022-07-22T14:44:03;19.30;99.90
54680;DHT22;40578;53.178;5.846;2022-07-22T14:46:29;19.00;99.90
54680;DHT22;40578;53.178;5.846;2022-07-22T14:48:54;19.00;99.90
54680;DHT22;40578;53.178;5.846;2022-07-22T14:51:21;19.00;99.90
54680;DHT22;40578;53.178;5.846;2022-07-22T14:53:47;19.10;99.90
54680;DHT22;40578;53.178;5.846;2022-07-22T14:56:13;19.10;99.90
54680;DHT22;40578;53.178;5.846;2022-07-22T14:58:41;18.90;99.90
54680;DHT22;40578;53.178;5.846;2022-07-22T15:01:07;19.00;99.90
54680;DHT22;40578;53.178;5.846;2022-07-22T15:03:32;19.00;99.90
54680;DHT22;40578;53.178;5.846;2022-07-22T15:05:58;19.00;99.90
54680;DHT22;40578;53.178;5.846;2022-07-22T15:08:23;18.90;99.90
54680;DHT22;40578;53.178;5.846;2022-07-22T15:10:51;18.80;99.90
54680;DHT22;40578;53.178;5.846;2022-07-22T15:13:17;18.60;99.90
54680;DHT22;40578;53.178;5.846;2022-07-22T15:15:43;18.50;99.90
54680;DHT22;40578;53.178;5.846;2022-07-22T15:18:09;18.40;99.90
54680;DHT22;40578;53.178;5.846;2022-07-22T15:20:34;18.40;99.90
54680;DHT22;40578;53.178;5.846;2022-07-22T15:23:02;18.20;1.00
54680;DHT22;40578;53.178;5.846;2022-07-22T15:25:28;18.30;1.00
54680;DHT22;40578;53.178;5.846;2022-07-22T15:27:54;18.30;1.00
54680;DHT22;40578;53.178;5.846;2022-07-22T15:30:19;18.20;99.90
54680;DHT22;40578;53.178;5.846;2022-07-22T15:32:46;18.20;99.90
54680;DHT22;40578;53.178;5.846;2022-07-22T15:35:12;18.20;99.90
54680;DHT22;40578;53.178;5.846;2022-07-22T15:37:38;18.10;99.90
54680;DHT22;40578;53.178;5.846;2022-07-22T15:40:06;18.30;99.90
54680;DHT22;40578;53.178;5.846;2022-07-22T15:42:32;18.30;99.90
54680;DHT22;40578;53.178;5.846;2022-07-22T15:44:57;18.30;99.90
54680;DHT22;40578;53.178;5.846;2022-07-22T15:47:23;18.30;99.90
54680;DHT22;40578;53.178;5.846;2022-07-22T15:49:49;18.30;99.90
54680;DHT22;40578;53.178;5.846;2022-07-22T15:52:14;18.50;99.90
54680;DHT22;40578;53.178;5.846;2022-07-22T15:54:40;18.60;99.90
54680;DHT22;40578;53.178;5.846;2022-07-22T15:57:07;18.60;99.90
54680;DHT22;40578;53.178;5.846;2022-07-22T15:59:51;18.60;99.90
54680;DHT22;40578;53.178;5.846;2022-07-22T16:02:16;18.50;99.90